sensor_id;sensor_type;location;lat;lon;timestamp;temperature;humidity
13606;DHT22;6874;52.084;5.090;2022-10-23T00:01:44;13.10;99.90
13606;DHT22;6874;52.084;5.090;2022-10-23T00:04:12;13.10;99.90
13606;DHT22;6874;52.084;5.090;2022-10-23T00:06:38;13.00;99.90
13606;DHT22;6874;52.084;5.090;2022-10-23T00:09:06;13.00;99.90
13606;DHT22;6874;52.084;5.090;2022-10-23T00:11:33;13.00;99.90
13606;DHT22;6874;52.084;5.090;2022-10-23T00:14:01;13.00;99.90
13606;DHT22;6874;52.084;5.090;2022-10-23T00:16:27;13.00;99.90
13606;DHT22;6874;52.084;5.090;2022-10-23T00:18:53;13.00;99.90
13606;DHT22;6874;52.084;5.090;2022-10-23T00:21:18;13.00;99.90
13606;DHT22;6874;52.084;5.090;2022-10-23T00:23:45;12.90;99.90
13606;DHT22;6874;52.084;5.090;2022-10-23T00:26:11;12.90;99.90
13606;DHT22;6874;52.084;5.090;2022-10-23T00:28:41;12.90;99.90
13606;DHT22;6874;52.084;5.090;2022-10-23T00:31:07;12.90;99.90
13606;DHT22;6874;52.084;5.090;2022-10-23T00:33:32;12.90;99.90
13606;DHT22;6874;52.084;5.090;2022-10-23T00:35:58;12.90;99.90
13606;DHT22;6874;52.084;5.090;2022-10-23T00:38:24;12.90;99.90
13606;DHT22;6874;52.084;5.090;2022-10-23T00:40:50;12.90;99.90
13606;DHT22;6874;52.084;5.090;2022-10-23T00:43:20;12.90;99.90
13606;DHT22;6874;52.084;5.090;2022-10-23T00:45:46;12.90;99.90
13606;DHT22;6874;52.084;5.090;2022-10-23T00:48:12;12.80;99.90
13606;DHT22;6874;52.084;5.090;2022-10-23T00:50:38;12.80;99.90
13606;DHT22;6874;52.084;5.090;2022-10-23T00:53:04;12.80;99.90
13606;DHT22;6874;52.084;5.090;2022-10-23T00:55:31;12.80;99.90
13606;DHT22;6874;52.084;5.090;2022-10-23T00:57:57;12.80;99.90
13606;DHT22;6874;52.084;5.090;2022-10-23T01:00:30;12.80;99.90
13606;DHT22;6874;52.084;5.090;2022-10-23T01:02:56;12.80;99.90
13606;DHT22;6874;52.084;5.090;2022-10-23T01:05:27;12.70;99.90
13606;DHT22;6874;52.084;5.090;2022-10-23T01:08:15;12.70;99.90
13606;DHT22;6874;52.084;5.090;2022-10-23T01:11:21;12.70;99.90
13606;DHT22;6874;52.084;5.090;2022-10-23T01:16:54;12.70;99.90
13606;DHT22;6874;52.084;5.090;2022-10-23T01:24:59;12.70;99.90
13606;DHT22;6874;52.084;5.090;2022-10-23T01:27:34;12.70;99.90
13606;DHT22;6874;52.084;5.090;2022-10-23T01:30:13;12.70;99.90
13606;DHT22;6874;52.084;5.090;2022-10-23T01:32:48;12.70;99.90
13606;DHT22;6874;52.084;5.090;2022-10-23T01:35:26;12.60;99.90
13606;DHT22;6874;52.084;5.090;2022-10-23T01:38:11;12.60;99.90
13606;DHT22;6874;52.084;5.090;2022-10-23T01:41:34;12.70;99.90
13606;DHT22;6874;52.084;5.090;2022-10-23T01:43:43;12.60;99.90
13606;DHT22;6874;52.084;5.090;2022-10-23T01:46:12;12.60;99.90
13606;DHT22;6874;52.084;5.090;2022-10-23T01:48:42;12.60;99.90
13606;DHT22;6874;52.084;5.090;2022-10-23T01:51:12;12.60;99.90
13606;DHT22;6874;52.084;5.090;2022-10-23T01:53:40;12.60;99.90
13606;DHT22;6874;52.084;5.090;2022-10-23T01:56:10;12.60;99.90
13606;DHT22;6874;52.084;5.090;2022-10-23T01:58:37;12.60;99.90
13606;DHT22;6874;52.084;5.090;2022-10-23T02:01:05;12.60;99.90
13606;DHT22;6874;52.084;5.090;2022-10-23T02:03:32;12.60;99.90
13606;DHT22;6874;52.084;5.090;2022-10-23T02:05:58;12.50;99.90
13606;DHT22;6874;52.084;5.090;2022-10-23T02:08:23;12.50;99.90
13606;DHT22;6874;52.084;5.090;2022-10-23T02:11:02;12.50;99.90
13606;DHT22;6874;52.084;5.090;2022-10-23T02:13:33;12.50;99.90
13606;DHT22;6874;52.084;5.090;2022-10-23T02:16:21;12.50;99.90
13606;DHT22;6874;52.084;5.090;2022-10-23T02:19:11;12.50;99.90
13606;DHT22;6874;52.084;5.090;2022-10-23T02:22:24;12.50;99.90
13606;DHT22;6874;52.084;5.090;2022-10-23T02:27:31;12.50;99.90
13606;DHT22;6874;52.084;5.090;2022-10-23T02:30:06;12.50;99.90
13606;DHT22;6874;52.084;5.090;2022-10-23T02:32:33;12.40;99.90
13606;DHT22;6874;52.084;5.090;2022-10-23T02:34:59;12.40;99.90
13606;DHT22;6874;52.084;5.090;2022-10-23T02:37:25;12.40;99.90
13606;DHT22;6874;52.084;5.090;2022-10-23T02:39:51;12.40;99.90
13606;DHT22;6874;52.084;5.090;2022-10-23T02:42:28;12.40;99.90
13606;DHT22;6874;52.084;5.090;2022-10-23T02:45:08;12.40;99.90
13606;DHT22;6874;52.084;5.090;2022-10-23T02:47:42;12.40;99.90
13606;DHT22;6874;52.084;5.090;2022-10-23T02:50:51;12.40;99.90
13606;DHT22;6874;52.084;5.090;2022-10-23T02:53:29;12.40;99.90
13606;DHT22;6874;52.084;5.090;2022-10-23T03:01:08;12.40;99.90
13606;DHT22;6874;52.084;5.090;2022-10-23T03:03:38;12.30;99.90
13606;DHT22;6874;52.084;5.090;2022-10-23T03:06:05;12.30;99.90
13606;DHT22;6874;52.084;5.090;2022-10-23T03:08:43;12.30;99.90
13606;DHT22;6874;52.084;5.090;2022-10-23T03:11:09;12.30;99.90
13606;DHT22;6874;52.084;5.090;2022-10-23T03:13:35;12.30;99.90
13606;DHT22;6874;52.084;5.090;2022-10-23T03:16:00;12.30;99.90
13606;DHT22;6874;52.084;5.090;2022-10-23T03:18:27;12.30;99.90
13606;DHT22;6874;52.084;5.090;2022-10-23T03:20:52;12.30;99.90
13606;DHT22;6874;52.084;5.090;2022-10-23T03:23:18;12.30;99.90
13606;DHT22;6874;52.084;5.090;2022-10-23T03:25:43;12.30;99.90
13606;DHT22;6874;52.084;5.090;2022-10-23T03:28:09;12.30;99.90
13606;DHT22;6874;52.084;5.090;2022-10-23T03:30:34;12.30;99.90
13606;DHT22;6874;52.084;5.090;2022-10-23T03:33:00;12.30;99.90
13606;DHT22;6874;52.084;5.090;2022-10-23T03:35:25;12.30;99.90
13606;DHT22;6874;52.084;5.090;2022-10-23T03:37:51;12.30;99.90
13606;DHT22;6874;52.084;5.090;2022-10-23T03:40:16;12.20;99.90
13606;DHT22;6874;52.084;5.090;2022-10-23T03:42:42;12.20;99.90
13606;DHT22;6874;52.084;5.090;2022-10-23T03:45:08;12.20;99.90
13606;DHT22;6874;52.084;5.090;2022-10-23T03:47:33;12.20;99.90
13606;DHT22;6874;52.084;5.090;2022-10-23T03:50:00;12.20;99.90
13606;DHT22;6874;52.084;5.090;2022-10-23T03:52:26;12.20;99.90
13606;DHT22;6874;52.084;5.090;2022-10-23T03:54:51;12.20;99.90
13606;DHT22;6874;52.084;5.090;2022-10-23T03:57:17;12.20;99.90
13606;DHT22;6874;52.084;5.090;2022-10-23T03:59:42;12.20;99.90
13606;DHT22;6874;52.084;5.090;2022-10-23T04:02:08;12.20;99.90
13606;DHT22;6874;52.084;5.090;2022-10-23T04:04:33;12.20;99.90
13606;DHT22;6874;52.084;5.090;2022-10-23T04:06:59;12.20;99.90
13606;DHT22;6874;52.084;5.090;2022-10-23T04:09:24;12.20;99.90
13606;DHT22;6874;52.084;5.090;2022-10-23T04:11:50;12.20;99.90
13606;DHT22;6874;52.084;5.090;2022-10-23T04:14:16;12.20;99.90
13606;DHT22;6874;52.084;5.090;2022-10-23T04:16:41;12.10;99.90
13606;DHT22;6874;52.084;5.090;2022-10-23T04:19:07;12.20;99.90
13606;DHT22;6874;52.084;5.090;2022-10-23T04:21:32;12.10;99.90
13606;DHT22;6874;52.084;5.090;2022-10-23T04:23:58;12.10;99.90
13606;DHT22;6874;52.084;5.090;2022-10-23T04:26:24;12.10;99.90
13606;DHT22;6874;52.084;5.090;2022-10-23T04:28:49;12.10;99.90
13606;DHT22;6874;52.084;5.090;2022-10-23T04:31:15;12.10;99.90
13606;DHT22;6874;52.084;5.090;2022-10-23T04:33:40;12.20;99.90
13606;DHT22;6874;52.084;5.090;2022-10-23T04:36:06;12.10;99.90
13606;DHT22;6874;52.084;5.090;2022-10-23T04:38:32;12.10;99.90
13606;DHT22;6874;52.084;5.090;2022-10-23T04:40:57;12.10;99.90
13606;DHT22;6874;52.084;5.090;2022-10-23T04:43:23;12.10;99.90
13606;DHT22;6874;52.084;5.090;2022-10-23T04:45:49;12.10;99.90
13606;DHT22;6874;52.084;5.090;2022-10-23T04:48:14;12.10;99.90
13606;DHT22;6874;52.084;5.090;2022-10-23T04:50:40;12.10;99.90
13606;DHT22;6874;52.084;5.090;2022-10-23T04:53:07;12.10;99.90
13606;DHT22;6874;52.084;5.090;2022-10-23T04:55:33;12.10;99.90
13606;DHT22;6874;52.084;5.090;2022-10-23T04:57:59;12.10;99.90
13606;DHT22;6874;52.084;5.090;2022-10-23T05:00:24;12.10;99.90
13606;DHT22;6874;52.084;5.090;2022-10-23T05:02:50;12.10;99.90
13606;DHT22;6874;52.084;5.090;2022-10-23T05:05:16;12.10;99.90
13606;DHT22;6874;52.084;5.090;2022-10-23T05:07:42;12.10;99.90
13606;DHT22;6874;52.084;5.090;2022-10-23T05:10:08;12.10;99.90
13606;DHT22;6874;52.084;5.090;2022-10-23T05:12:33;12.10;99.90
13606;DHT22;6874;52.084;5.090;2022-10-23T05:14:59;12.10;99.90
13606;DHT22;6874;52.084;5.090;2022-10-23T05:17:34;12.10;99.90
13606;DHT22;6874;52.084;5.090;2022-10-23T05:20:03;12.10;99.90
13606;DHT22;6874;52.084;5.090;2022-10-23T05:22:32;12.10;99.90
13606;DHT22;6874;52.084;5.090;2022-10-23T05:24:57;12.10;99.90
13606;DHT22;6874;52.084;5.090;2022-10-23T05:27:26;12.10;99.90
13606;DHT22;6874;52.084;5.090;2022-10-23T05:29:51;12.10;99.90
13606;DHT22;6874;52.084;5.090;2022-10-23T05:32:17;12.10;99.90
13606;DHT22;6874;52.084;5.090;2022-10-23T05:34:43;12.10;99.90
13606;DHT22;6874;52.084;5.090;2022-10-23T05:37:10;12.10;99.90
13606;DHT22;6874;52.084;5.090;2022-10-23T05:39:37;12.10;99.90
13606;DHT22;6874;52.084;5.090;2022-10-23T05:42:03;12.10;99.90
13606;DHT22;6874;52.084;5.090;2022-10-23T05:44:28;12.10;99.90
13606;DHT22;6874;52.084;5.090;2022-10-23T05:47:00;12.10;99.90
13606;DHT22;6874;52.084;5.090;2022-10-23T05:49:25;12.10;99.90
13606;DHT22;6874;52.084;5.090;2022-10-23T05:51:51;12.10;99.90
13606;DHT22;6874;52.084;5.090;2022-10-23T05:54:22;12.10;99.90
13606;DHT22;6874;52.084;5.090;2022-10-23T05:56:57;12.10;99.90
13606;DHT22;6874;52.084;5.090;2022-10-23T05:59:22;12.10;99.90
13606;DHT22;6874;52.084;5.090;2022-10-23T06:01:48;12.20;99.90
13606;DHT22;6874;52.084;5.090;2022-10-23T06:04:13;12.20;99.90
13606;DHT22;6874;52.084;5.090;2022-10-23T06:06:39;12.10;99.90
13606;DHT22;6874;52.084;5.090;2022-10-23T06:09:04;12.20;99.90
13606;DHT22;6874;52.084;5.090;2022-10-23T06:11:30;12.20;99.90
13606;DHT22;6874;52.084;5.090;2022-10-23T06:13:56;12.20;99.90
13606;DHT22;6874;52.084;5.090;2022-10-23T06:16:22;12.20;99.90
13606;DHT22;6874;52.084;5.090;2022-10-23T06:18:51;12.20;99.90
13606;DHT22;6874;52.084;5.090;2022-10-23T06:21:17;12.20;99.90
13606;DHT22;6874;52.084;5.090;2022-10-23T06:23:44;12.20;99.90
13606;DHT22;6874;52.084;5.090;2022-10-23T06:26:11;12.20;99.90
13606;DHT22;6874;52.084;5.090;2022-10-23T06:28:37;12.20;99.90
13606;DHT22;6874;52.084;5.090;2022-10-23T06:31:04;12.20;99.90
13606;DHT22;6874;52.084;5.090;2022-10-23T06:33:30;12.20;99.90
13606;DHT22;6874;52.084;5.090;2022-10-23T06:35:55;12.20;99.90
13606;DHT22;6874;52.084;5.090;2022-10-23T06:38:21;12.20;99.90
13606;DHT22;6874;52.084;5.090;2022-10-23T06:40:51;12.20;99.90
13606;DHT22;6874;52.084;5.090;2022-10-23T06:43:17;12.20;99.90
13606;DHT22;6874;52.084;5.090;2022-10-23T06:45:43;12.20;99.90
13606;DHT22;6874;52.084;5.090;2022-10-23T06:48:08;12.20;99.90
13606;DHT22;6874;52.084;5.090;2022-10-23T06:50:36;12.20;99.90
13606;DHT22;6874;52.084;5.090;2022-10-23T06:53:01;12.20;99.90
13606;DHT22;6874;52.084;5.090;2022-10-23T06:55:29;12.20;99.90
13606;DHT22;6874;52.084;5.090;2022-10-23T06:57:54;12.20;99.90
13606;DHT22;6874;52.084;5.090;2022-10-23T07:00:20;12.20;99.90
13606;DHT22;6874;52.084;5.090;2022-10-23T07:02:46;12.30;99.90
13606;DHT22;6874;52.084;5.090;2022-10-23T07:05:11;12.30;99.90
13606;DHT22;6874;52.084;5.090;2022-10-23T07:07:37;12.30;99.90
13606;DHT22;6874;52.084;5.090;2022-10-23T07:10:03;12.20;99.90
13606;DHT22;6874;52.084;5.090;2022-10-23T07:12:29;12.30;99.90
13606;DHT22;6874;52.084;5.090;2022-10-23T07:14:55;12.30;99.90
13606;DHT22;6874;52.084;5.090;2022-10-23T07:17:20;12.30;99.90
13606;DHT22;6874;52.084;5.090;2022-10-23T07:19:46;12.30;99.90
13606;DHT22;6874;52.084;5.090;2022-10-23T07:22:12;12.30;99.90
13606;DHT22;6874;52.084;5.090;2022-10-23T07:24:38;12.30;99.90
13606;DHT22;6874;52.084;5.090;2022-10-23T07:27:05;12.30;99.90
13606;DHT22;6874;52.084;5.090;2022-10-23T07:29:31;12.30;99.90
13606;DHT22;6874;52.084;5.090;2022-10-23T07:31:58;12.30;99.90
13606;DHT22;6874;52.084;5.090;2022-10-23T07:34:25;12.40;99.90
13606;DHT22;6874;52.084;5.090;2022-10-23T07:36:51;12.30;99.90
13606;DHT22;6874;52.084;5.090;2022-10-23T07:39:16;12.40;99.90
13606;DHT22;6874;52.084;5.090;2022-10-23T07:41:42;12.40;99.90
13606;DHT22;6874;52.084;5.090;2022-10-23T07:44:07;12.40;99.90
13606;DHT22;6874;52.084;5.090;2022-10-23T07:46:33;12.50;99.90
13606;DHT22;6874;52.084;5.090;2022-10-23T07:48:58;12.50;99.90
13606;DHT22;6874;52.084;5.090;2022-10-23T07:51:24;12.50;99.90
13606;DHT22;6874;52.084;5.090;2022-10-23T07:53:49;12.50;99.90
13606;DHT22;6874;52.084;5.090;2022-10-23T07:56:17;12.50;99.90
13606;DHT22;6874;52.084;5.090;2022-10-23T07:58:45;12.50;99.90
13606;DHT22;6874;52.084;5.090;2022-10-23T08:01:19;12.50;99.90
13606;DHT22;6874;52.084;5.090;2022-10-23T08:03:45;12.50;99.90
13606;DHT22;6874;52.084;5.090;2022-10-23T08:06:11;12.60;99.90
13606;DHT22;6874;52.084;5.090;2022-10-23T08:08:36;12.60;99.90
13606;DHT22;6874;52.084;5.090;2022-10-23T08:11:02;12.60;99.90
13606;DHT22;6874;52.084;5.090;2022-10-23T08:13:27;12.60;99.90
13606;DHT22;6874;52.084;5.090;2022-10-23T08:15:53;12.60;99.90
13606;DHT22;6874;52.084;5.090;2022-10-23T08:18:20;12.60;99.90
13606;DHT22;6874;52.084;5.090;2022-10-23T08:20:46;12.70;99.90
13606;DHT22;6874;52.084;5.090;2022-10-23T08:23:14;12.70;99.90
13606;DHT22;6874;52.084;5.090;2022-10-23T08:25:41;12.70;99.90
13606;DHT22;6874;52.084;5.090;2022-10-23T08:28:07;12.70;99.90
13606;DHT22;6874;52.084;5.090;2022-10-23T08:30:34;12.80;99.90
13606;DHT22;6874;52.084;5.090;2022-10-23T08:33:05;12.80;99.90
13606;DHT22;6874;52.084;5.090;2022-10-23T08:35:35;12.80;99.90
13606;DHT22;6874;52.084;5.090;2022-10-23T08:38:01;12.80;99.90
13606;DHT22;6874;52.084;5.090;2022-10-23T08:40:26;12.90;99.90
13606;DHT22;6874;52.084;5.090;2022-10-23T08:48:25;12.90;99.90
13606;DHT22;6874;52.084;5.090;2022-10-23T08:51:03;12.90;99.90
13606;DHT22;6874;52.084;5.090;2022-10-23T08:53:32;12.90;99.90
13606;DHT22;6874;52.084;5.090;2022-10-23T08:56:03;12.90;99.90
13606;DHT22;6874;52.084;5.090;2022-10-23T08:58:43;12.90;99.90
13606;DHT22;6874;52.084;5.090;2022-10-23T09:03:45;13.00;99.90
13606;DHT22;6874;52.084;5.090;2022-10-23T09:06:43;13.00;99.90
13606;DHT22;6874;52.084;5.090;2022-10-23T09:12:13;13.10;99.90
13606;DHT22;6874;52.084;5.090;2022-10-23T09:14:52;13.10;99.90
13606;DHT22;6874;52.084;5.090;2022-10-23T09:17:26;13.10;99.90
13606;DHT22;6874;52.084;5.090;2022-10-23T09:20:17;13.10;99.90
13606;DHT22;6874;52.084;5.090;2022-10-23T09:22:45;13.20;99.90
13606;DHT22;6874;52.084;5.090;2022-10-23T09:25:18;13.20;99.90
13606;DHT22;6874;52.084;5.090;2022-10-23T09:27:49;13.20;99.90
13606;DHT22;6874;52.084;5.090;2022-10-23T09:30:36;13.20;99.90
13606;DHT22;6874;52.084;5.090;2022-10-23T09:33:23;13.30;99.90
13606;DHT22;6874;52.084;5.090;2022-10-23T09:35:58;13.30;99.90
13606;DHT22;6874;52.084;5.090;2022-10-23T09:38:37;13.30;99.90
13606;DHT22;6874;52.084;5.090;2022-10-23T09:41:22;13.30;99.90
13606;DHT22;6874;52.084;5.090;2022-10-23T09:43:59;13.30;99.90
13606;DHT22;6874;52.084;5.090;2022-10-23T09:46:39;13.30;99.90
13606;DHT22;6874;52.084;5.090;2022-10-23T09:49:05;13.40;99.90
13606;DHT22;6874;52.084;5.090;2022-10-23T09:51:32;13.40;99.90
13606;DHT22;6874;52.084;5.090;2022-10-23T09:53:58;13.40;99.90
13606;DHT22;6874;52.084;5.090;2022-10-23T09:56:38;13.40;99.90
13606;DHT22;6874;52.084;5.090;2022-10-23T10:01:48;13.40;99.90
13606;DHT22;6874;52.084;5.090;2022-10-23T10:04:14;13.50;99.90
13606;DHT22;6874;52.084;5.090;2022-10-23T10:06:40;13.50;99.90
13606;DHT22;6874;52.084;5.090;2022-10-23T10:09:13;13.50;99.90
13606;DHT22;6874;52.084;5.090;2022-10-23T10:11:47;13.50;99.90
13606;DHT22;6874;52.084;5.090;2022-10-23T10:14:29;13.60;99.90
13606;DHT22;6874;52.084;5.090;2022-10-23T10:17:05;13.50;99.90
13606;DHT22;6874;52.084;5.090;2022-10-23T10:22:34;13.60;99.90
13606;DHT22;6874;52.084;5.090;2022-10-23T10:30:54;13.70;99.90
13606;DHT22;6874;52.084;5.090;2022-10-23T10:39:02;13.80;99.90
13606;DHT22;6874;52.084;5.090;2022-10-23T10:41:44;13.80;99.90
13606;DHT22;6874;52.084;5.090;2022-10-23T10:49:35;13.90;99.90
13606;DHT22;6874;52.084;5.090;2022-10-23T10:52:21;13.90;99.90
13606;DHT22;6874;52.084;5.090;2022-10-23T10:57:42;13.90;99.90
13606;DHT22;6874;52.084;5.090;2022-10-23T11:00:17;14.00;99.90
13606;DHT22;6874;52.084;5.090;2022-10-23T11:03:18;14.00;99.90
13606;DHT22;6874;52.084;5.090;2022-10-23T11:05:47;14.00;99.90
13606;DHT22;6874;52.084;5.090;2022-10-23T11:08:23;14.10;99.90
13606;DHT22;6874;52.084;5.090;2022-10-23T11:11:03;14.10;99.90
13606;DHT22;6874;52.084;5.090;2022-10-23T11:13:35;14.20;99.90
13606;DHT22;6874;52.084;5.090;2022-10-23T11:16:09;14.10;99.90
13606;DHT22;6874;52.084;5.090;2022-10-23T11:18:36;14.30;99.90
13606;DHT22;6874;52.084;5.090;2022-10-23T11:21:14;14.20;99.90
13606;DHT22;6874;52.084;5.090;2022-10-23T11:26:31;14.30;99.90
13606;DHT22;6874;52.084;5.090;2022-10-23T11:32:23;14.30;99.90
13606;DHT22;6874;52.084;5.090;2022-10-23T11:37:24;14.40;99.90
13606;DHT22;6874;52.084;5.090;2022-10-23T11:42:45;14.50;99.90
13606;DHT22;6874;52.084;5.090;2022-10-23T11:45:36;14.50;99.90
13606;DHT22;6874;52.084;5.090;2022-10-23T11:58:45;14.80;99.90
13606;DHT22;6874;52.084;5.090;2022-10-23T12:01:26;14.90;99.90
13606;DHT22;6874;52.084;5.090;2022-10-23T12:04:15;14.90;99.90
13606;DHT22;6874;52.084;5.090;2022-10-23T12:06:54;15.00;99.90
13606;DHT22;6874;52.084;5.090;2022-10-23T12:14:37;15.10;99.90
13606;DHT22;6874;52.084;5.090;2022-10-23T12:19:54;15.20;99.90
13606;DHT22;6874;52.084;5.090;2022-10-23T12:22:23;15.30;99.90
13606;DHT22;6874;52.084;5.090;2022-10-23T12:25:16;15.30;99.90
13606;DHT22;6874;52.084;5.090;2022-10-23T12:28:02;15.40;99.90
13606;DHT22;6874;52.084;5.090;2022-10-23T12:30:45;15.40;99.90
13606;DHT22;6874;52.084;5.090;2022-10-23T12:36:14;15.50;99.90
13606;DHT22;6874;52.084;5.090;2022-10-23T12:38:45;15.50;99.90
13606;DHT22;6874;52.084;5.090;2022-10-23T12:41:32;15.50;99.90
13606;DHT22;6874;52.084;5.090;2022-10-23T12:44:01;15.60;99.90
13606;DHT22;6874;52.084;5.090;2022-10-23T12:46:38;15.60;99.90
13606;DHT22;6874;52.084;5.090;2022-10-23T12:49:22;15.60;99.90
13606;DHT22;6874;52.084;5.090;2022-10-23T12:52:15;15.80;99.90
13606;DHT22;6874;52.084;5.090;2022-10-23T12:54:41;15.70;99.90
13606;DHT22;6874;52.084;5.090;2022-10-23T12:57:41;15.70;99.90
13606;DHT22;6874;52.084;5.090;2022-10-23T13:00:09;15.80;99.90
13606;DHT22;6874;52.084;5.090;2022-10-23T13:02:35;15.80;99.90
13606;DHT22;6874;52.084;5.090;2022-10-23T13:05:04;15.80;99.90
13606;DHT22;6874;52.084;5.090;2022-10-23T13:07:33;15.80;99.90
13606;DHT22;6874;52.084;5.090;2022-10-23T13:10:00;15.90;99.90
13606;DHT22;6874;52.084;5.090;2022-10-23T13:12:32;15.90;99.90
13606;DHT22;6874;52.084;5.090;2022-10-23T13:17:38;15.90;99.90
13606;DHT22;6874;52.084;5.090;2022-10-23T13:22:42;16.00;99.90
13606;DHT22;6874;52.084;5.090;2022-10-23T13:25:22;16.00;99.90
13606;DHT22;6874;52.084;5.090;2022-10-23T13:27:48;16.10;99.90
13606;DHT22;6874;52.084;5.090;2022-10-23T13:30:34;16.10;99.90
13606;DHT22;6874;52.084;5.090;2022-10-23T13:33:22;16.10;99.90
13606;DHT22;6874;52.084;5.090;2022-10-23T13:41:19;16.20;99.90
13606;DHT22;6874;52.084;5.090;2022-10-23T13:43:46;16.20;99.90
13606;DHT22;6874;52.084;5.090;2022-10-23T13:46:16;16.20;99.90
13606;DHT22;6874;52.084;5.090;2022-10-23T13:48:42;16.20;99.90
13606;DHT22;6874;52.084;5.090;2022-10-23T13:51:19;16.30;99.90
13606;DHT22;6874;52.084;5.090;2022-10-23T13:53:45;16.30;99.90
13606;DHT22;6874;52.084;5.090;2022-10-23T13:56:13;16.40;99.90
13606;DHT22;6874;52.084;5.090;2022-10-23T13:58:39;16.40;99.90
13606;DHT22;6874;52.084;5.090;2022-10-23T14:01:05;16.30;99.90
13606;DHT22;6874;52.084;5.090;2022-10-23T14:03:31;16.50;99.90
13606;DHT22;6874;52.084;5.090;2022-10-23T14:05:56;16.40;99.90
13606;DHT22;6874;52.084;5.090;2022-10-23T14:08:22;16.40;99.90
13606;DHT22;6874;52.084;5.090;2022-10-23T14:10:47;16.50;99.90
13606;DHT22;6874;52.084;5.090;2022-10-23T14:13:13;16.50;99.90
13606;DHT22;6874;52.084;5.090;2022-10-23T14:15:38;16.50;99.90
13606;DHT22;6874;52.084;5.090;2022-10-23T14:18:04;16.50;99.90
13606;DHT22;6874;52.084;5.090;2022-10-23T14:20:30;16.50;99.90
13606;DHT22;6874;52.084;5.090;2022-10-23T14:22:55;16.60;99.90
13606;DHT22;6874;52.084;5.090;2022-10-23T14:25:21;16.50;99.90
13606;DHT22;6874;52.084;5.090;2022-10-23T14:27:47;16.60;99.90
13606;DHT22;6874;52.084;5.090;2022-10-23T14:30:13;16.60;99.90
13606;DHT22;6874;52.084;5.090;2022-10-23T14:32:39;16.60;99.90
13606;DHT22;6874;52.084;5.090;2022-10-23T14:35:05;16.70;99.90
13606;DHT22;6874;52.084;5.090;2022-10-23T14:37:32;16.70;99.90
13606;DHT22;6874;52.084;5.090;2022-10-23T14:39:57;16.70;99.90
13606;DHT22;6874;52.084;5.090;2022-10-23T14:42:23;16.80;99.90
13606;DHT22;6874;52.084;5.090;2022-10-23T14:44:49;16.70;99.90
13606;DHT22;6874;52.084;5.090;2022-10-23T14:47:16;16.80;99.90
13606;DHT22;6874;52.084;5.090;2022-10-23T14:49:45;16.80;99.90
13606;DHT22;6874;52.084;5.090;2022-10-23T14:52:12;16.80;99.90
13606;DHT22;6874;52.084;5.090;2022-10-23T14:54:37;16.80;99.90
13606;DHT22;6874;52.084;5.090;2022-10-23T14:57:03;16.80;99.90
13606;DHT22;6874;52.084;5.090;2022-10-23T14:59:28;16.90;99.90
13606;DHT22;6874;52.084;5.090;2022-10-23T15:01:54;16.80;99.90
13606;DHT22;6874;52.084;5.090;2022-10-23T15:04:20;16.90;99.90
13606;DHT22;6874;52.084;5.090;2022-10-23T15:06:45;16.90;99.90
13606;DHT22;6874;52.084;5.090;2022-10-23T15:09:12;16.90;99.90
13606;DHT22;6874;52.084;5.090;2022-10-23T15:11:37;16.90;99.90
13606;DHT22;6874;52.084;5.090;2022-10-23T15:14:03;16.90;99.90
13606;DHT22;6874;52.084;5.090;2022-10-23T15:16:29;16.90;99.90
13606;DHT22;6874;52.084;5.090;2022-10-23T15:18:54;16.90;99.90
13606;DHT22;6874;52.084;5.090;2022-10-23T15:21:20;16.80;99.90
13606;DHT22;6874;52.084;5.090;2022-10-23T15:23:46;16.90;99.90
13606;DHT22;6874;52.084;5.090;2022-10-23T15:26:17;16.90;99.90
13606;DHT22;6874;52.084;5.090;2022-10-23T15:28:53;16.80;99.90
13606;DHT22;6874;52.084;5.090;2022-10-23T15:33:53;16.80;99.90
13606;DHT22;6874;52.084;5.090;2022-10-23T15:36:18;16.80;99.90
13606;DHT22;6874;52.084;5.090;2022-10-23T15:38:44;16.80;99.90
13606;DHT22;6874;52.084;5.090;2022-10-23T15:41:14;16.80;99.90
13606;DHT22;6874;52.084;5.090;2022-10-23T15:43:39;16.80;99.90
13606;DHT22;6874;52.084;5.090;2022-10-23T15:46:05;16.80;99.90
13606;DHT22;6874;52.084;5.090;2022-10-23T15:48:30;16.80;99.90
13606;DHT22;6874;52.084;5.090;2022-10-23T15:50:56;16.80;99.90
13606;DHT22;6874;52.084;5.090;2022-10-23T15:53:23;16.80;99.90
13606;DHT22;6874;52.084;5.090;2022-10-23T15:55:49;16.80;99.90
13606;DHT22;6874;52.084;5.090;2022-10-23T15:58:14;16.80;99.90
13606;DHT22;6874;52.084;5.090;2022-10-23T16:00:40;16.80;99.90
13606;DHT22;6874;52.084;5.090;2022-10-23T16:03:06;16.70;99.90
13606;DHT22;6874;52.084;5.090;2022-10-23T16:05:31;16.70;99.90
13606;DHT22;6874;52.084;5.090;2022-10-23T16:07:57;16.70;99.90
13606;DHT22;6874;52.084;5.090;2022-10-23T16:10:22;16.70;99.90
13606;DHT22;6874;52.084;5.090;2022-10-23T16:12:49;16.70;99.90
13606;DHT22;6874;52.084;5.090;2022-10-23T16:15:14;16.70;99.90
13606;DHT22;6874;52.084;5.090;2022-10-23T16:17:40;16.70;99.90
13606;DHT22;6874;52.084;5.090;2022-10-23T16:20:06;16.70;99.90
13606;DHT22;6874;52.084;5.090;2022-10-23T16:22:32;16.70;99.90
13606;DHT22;6874;52.084;5.090;2022-10-23T16:24:57;16.70;99.90
13606;DHT22;6874;52.084;5.090;2022-10-23T16:27:23;16.70;99.90
13606;DHT22;6874;52.084;5.090;2022-10-23T16:29:48;16.70;99.90
13606;DHT22;6874;52.084;5.090;2022-10-23T16:32:14;16.70;99.90
13606;DHT22;6874;52.084;5.090;2022-10-23T16:34:39;16.60;99.90
13606;DHT22;6874;52.084;5.090;2022-10-23T16:37:05;16.70;99.90
13606;DHT22;6874;52.084;5.090;2022-10-23T16:39:30;16.60;99.90
13606;DHT22;6874;52.084;5.090;2022-10-23T16:41:56;16.60;99.90
13606;DHT22;6874;52.084;5.090;2022-10-23T16:44:22;16.60;99.90
13606;DHT22;6874;52.084;5.090;2022-10-23T16:46:47;16.60;99.90
13606;DHT22;6874;52.084;5.090;2022-10-23T16:49:13;16.60;99.90
13606;DHT22;6874;52.084;5.090;2022-10-23T16:51:39;16.60;99.90
13606;DHT22;6874;52.084;5.090;2022-10-23T16:54:04;16.60;99.90
13606;DHT22;6874;52.084;5.090;2022-10-23T16:56:30;16.60;99.90
13606;DHT22;6874;52.084;5.090;2022-10-23T16:58:57;16.60;99.90
13606;DHT22;6874;52.084;5.090;2022-10-23T17:01:27;16.60;99.90
13606;DHT22;6874;52.084;5.090;2022-10-23T17:03:54;16.60;99.90
13606;DHT22;6874;52.084;5.090;2022-10-23T17:06:30;16.50;99.90
13606;DHT22;6874;52.084;5.090;2022-10-23T17:08:57;16.50;99.90
13606;DHT22;6874;52.084;5.090;2022-10-23T17:11:28;16.60;99.90
13606;DHT22;6874;52.084;5.090;2022-10-23T17:16:33;16.50;99.90
13606;DHT22;6874;52.084;5.090;2022-10-23T17:18:59;16.50;99.90
13606;DHT22;6874;52.084;5.090;2022-10-23T17:21:26;16.50;99.90
13606;DHT22;6874;52.084;5.090;2022-10-23T17:23:55;16.50;99.90
13606;DHT22;6874;52.084;5.090;2022-10-23T17:26:21;16.50;99.90
13606;DHT22;6874;52.084;5.090;2022-10-23T17:28:46;16.50;99.90
13606;DHT22;6874;52.084;5.090;2022-10-23T17:31:18;16.50;99.90
13606;DHT22;6874;52.084;5.090;2022-10-23T17:33:44;16.50;99.90
13606;DHT22;6874;52.084;5.090;2022-10-23T17:36:12;16.50;99.90
13606;DHT22;6874;52.084;5.090;2022-10-23T17:38:39;16.50;99.90
13606;DHT22;6874;52.084;5.090;2022-10-23T17:41:06;16.50;99.90